sensor_id;sensor_type;location;lat;lon;timestamp;pressure;altitude;pressure_sealevel;temperature;humidity
46778;BME280;32536;47.128;8.746;2023-04-29T00:01:02;91530.81;;;15.84;60.76
46778;BME280;32536;47.128;8.746;2023-04-29T00:03:29;91527.34;;;15.84;60.75
46778;BME280;32536;47.128;8.746;2023-04-29T00:06:00;91528.13;;;15.84;61.06
46778;BME280;32536;47.128;8.746;2023-04-29T00:08:27;91532.00;;;15.83;60.78
46778;BME280;32536;47.128;8.746;2023-04-29T00:10:53;91532.41;;;15.82;60.92
46778;BME280;32536;47.128;8.746;2023-04-29T00:13:20;91525.94;;;15.79;61.39
46778;BME280;32536;47.128;8.746;2023-04-29T00:15:47;91529.19;;;15.74;61.22
46778;BME280;32536;47.128;8.746;2023-04-29T00:18:15;91517.91;;;15.66;60.81
46778;BME280;32536;47.128;8.746;2023-04-29T00:20:41;91523.88;;;15.61;61.14
46778;BME280;32536;47.128;8.746;2023-04-29T00:23:08;91518.28;;;15.56;61.32
46778;BME280;32536;47.128;8.746;2023-04-29T00:25:35;91529.94;;;15.52;61.40
46778;BME280;32536;47.128;8.746;2023-04-29T00:28:04;91526.94;;;15.50;61.40
46778;BME280;32536;47.128;8.746;2023-04-29T00:30:31;91519.25;;;15.49;60.94
46778;BME280;32536;47.128;8.746;2023-04-29T00:33:01;91521.94;;;15.49;60.88
46778;BME280;32536;47.128;8.746;2023-04-29T00:35:28;91524.25;;;15.50;60.90
46778;BME280;32536;47.128;8.746;2023-04-29T00:37:55;91526.03;;;15.53;60.60
46778;BME280;32536;47.128;8.746;2023-04-29T00:40:21;91521.72;;;15.56;61.04
46778;BME280;32536;47.128;8.746;2023-04-29T00:42:48;91510.91;;;15.56;60.82
46778;BME280;32536;47.128;8.746;2023-04-29T00:45:15;91519.47;;;15.55;60.72
46778;BME280;32536;47.128;8.746;2023-04-29T00:47:42;91515.91;;;15.58;61.20
46778;BME280;32536;47.128;8.746;2023-04-29T00:50:09;91521.16;;;15.61;61.28
46778;BME280;32536;47.128;8.746;2023-04-29T00:52:36;91520.28;;;15.64;61.33
46778;BME280;32536;47.128;8.746;2023-04-29T00:55:06;91523.19;;;15.70;61.31
46778;BME280;32536;47.128;8.746;2023-04-29T00:57:33;91521.09;;;15.74;61.18
46778;BME280;32536;47.128;8.746;2023-04-29T01:00:00;91531.03;;;15.77;61.24
46778;BME280;32536;47.128;8.746;2023-04-29T01:02:27;91531.31;;;15.79;60.92
46778;BME280;32536;47.128;8.746;2023-04-29T01:04:54;91530.72;;;15.75;61.41
46778;BME280;32536;47.128;8.746;2023-04-29T01:10:26;91522.97;;;15.64;61.93
46778;BME280;32536;47.128;8.746;2023-04-29T01:13:29;91522.66;;;15.62;61.71
46778;BME280;32536;47.128;8.746;2023-04-29T01:16:02;91525.34;;;15.62;60.92
46778;BME280;32536;47.128;8.746;2023-04-29T01:18:33;91526.13;;;15.63;61.00
46778;BME280;32536;47.128;8.746;2023-04-29T01:21:04;91524.16;;;15.63;60.93
46778;BME280;32536;47.128;8.746;2023-04-29T01:23:30;91519.22;;;15.62;60.73
46778;BME280;32536;47.128;8.746;2023-04-29T01:25:57;91520.09;;;15.59;60.80
46778;BME280;32536;47.128;8.746;2023-04-29T01:28:49;91514.19;;;15.51;61.55
46778;BME280;32536;47.128;8.746;2023-04-29T01:31:35;91510.75;;;15.50;61.38
46778;BME280;32536;47.128;8.746;2023-04-29T01:34:21;91511.16;;;15.49;61.25
46778;BME280;32536;47.128;8.746;2023-04-29T01:37:05;91512.78;;;15.46;61.19
46778;BME280;32536;47.128;8.746;2023-04-29T01:40:18;91501.25;;;15.46;61.71
46778;BME280;32536;47.128;8.746;2023-04-29T01:43:07;91495.72;;;15.49;61.13
46778;BME280;32536;47.128;8.746;2023-04-29T01:45:37;91495.97;;;15.42;60.91
46778;BME280;32536;47.128;8.746;2023-04-29T01:48:08;91493.19;;;15.33;61.10
46778;BME280;32536;47.128;8.746;2023-04-29T01:50:35;91491.63;;;15.23;61.17
46778;BME280;32536;47.128;8.746;2023-04-29T01:53:02;91493.94;;;15.11;61.38
46778;BME280;32536;47.128;8.746;2023-04-29T01:55:29;91495.78;;;15.01;61.51
46778;BME280;32536;47.128;8.746;2023-04-29T01:57:55;91507.56;;;14.95;61.64
46778;BME280;32536;47.128;8.746;2023-04-29T02:00:22;91506.16;;;14.90;61.46
46778;BME280;32536;47.128;8.746;2023-04-29T02:02:49;91505.19;;;14.84;61.50
46778;BME280;32536;47.128;8.746;2023-04-29T02:05:16;91504.34;;;14.74;61.78
46778;BME280;32536;47.128;8.746;2023-04-29T02:07:42;91512.53;;;14.70;61.88
46778;BME280;32536;47.128;8.746;2023-04-29T02:10:09;91501.47;;;14.68;61.86
46778;BME280;32536;47.128;8.746;2023-04-29T02:12:36;91511.91;;;14.66;61.93
46778;BME280;32536;47.128;8.746;2023-04-29T02:15:04;91508.03;;;14.67;61.95
46778;BME280;32536;47.128;8.746;2023-04-29T02:17:32;91505.53;;;14.73;61.88
46778;BME280;32536;47.128;8.746;2023-04-29T02:19:59;91507.25;;;14.80;61.89
46778;BME280;32536;47.128;8.746;2023-04-29T02:22:26;91500.97;;;14.83;61.83
46778;BME280;32536;47.128;8.746;2023-04-29T02:24:52;91503.16;;;14.88;61.69
46778;BME280;32536;47.128;8.746;2023-04-29T02:27:19;91496.75;;;14.95;61.83
46778;BME280;32536;47.128;8.746;2023-04-29T02:29:46;91490.06;;;14.99;61.63
46778;BME280;32536;47.128;8.746;2023-04-29T02:32:12;91484.13;;;15.04;61.64
46778;BME280;32536;47.128;8.746;2023-04-29T02:34:40;91486.25;;;15.10;61.39
46778;BME280;32536;47.128;8.746;2023-04-29T02:37:07;91480.00;;;15.13;61.37
46778;BME280;32536;47.128;8.746;2023-04-29T02:39:33;91481.50;;;15.14;61.37
46778;BME280;32536;47.128;8.746;2023-04-29T02:42:00;91481.06;;;15.15;61.61
46778;BME280;32536;47.128;8.746;2023-04-29T02:44:27;91477.91;;;15.17;61.48
46778;BME280;32536;47.128;8.746;2023-04-29T02:46:56;91472.84;;;15.19;61.70
46778;BME280;32536;47.128;8.746;2023-04-29T02:49:23;91470.88;;;15.19;61.43
46778;BME280;32536;47.128;8.746;2023-04-29T02:51:49;91471.97;;;15.22;61.32
46778;BME280;32536;47.128;8.746;2023-04-29T02:54:16;91465.81;;;15.21;61.35
46778;BME280;32536;47.128;8.746;2023-04-29T02:56:43;91462.38;;;15.21;60.95
46778;BME280;32536;47.128;8.746;2023-04-29T02:59:10;91466.72;;;15.18;60.97
46778;BME280;32536;47.128;8.746;2023-04-29T03:01:36;91468.31;;;15.16;60.93
46778;BME280;32536;47.128;8.746;2023-04-29T03:04:04;91467.56;;;15.15;60.92
46778;BME280;32536;47.128;8.746;2023-04-29T03:06:31;91464.00;;;15.18;60.91
46778;BME280;32536;47.128;8.746;2023-04-29T03:08:58;91469.25;;;15.22;60.87
46778;BME280;32536;47.128;8.746;2023-04-29T03:11:25;91477.69;;;15.24;60.58
46778;BME280;32536;47.128;8.746;2023-04-29T03:13:52;91481.44;;;15.27;60.51
46778;BME280;32536;47.128;8.746;2023-04-29T03:16:19;91470.22;;;15.28;60.52
46778;BME280;32536;47.128;8.746;2023-04-29T03:18:46;91475.31;;;15.26;60.41
46778;BME280;32536;47.128;8.746;2023-04-29T03:21:13;91478.13;;;15.23;60.89
46778;BME280;32536;47.128;8.746;2023-04-29T03:23:40;91475.88;;;15.21;61.04
46778;BME280;32536;47.128;8.746;2023-04-29T03:26:07;91481.28;;;15.21;61.36
46778;BME280;32536;47.128;8.746;2023-04-29T03:28:34;91482.47;;;15.20;61.29
46778;BME280;32536;47.128;8.746;2023-04-29T03:31:00;91473.28;;;15.17;61.47
46778;BME280;32536;47.128;8.746;2023-04-29T03:33:27;91470.25;;;15.15;61.31
46778;BME280;32536;47.128;8.746;2023-04-29T03:35:54;91474.16;;;15.14;61.49
46778;BME280;32536;47.128;8.746;2023-04-29T03:38:21;91470.72;;;15.14;61.59
46778;BME280;32536;47.128;8.746;2023-04-29T03:40:48;91463.81;;;15.13;61.19
46778;BME280;32536;47.128;8.746;2023-04-29T03:43:14;91463.34;;;15.14;61.43
46778;BME280;32536;47.128;8.746;2023-04-29T03:45:41;91467.25;;;15.13;61.31
46778;BME280;32536;47.128;8.746;2023-04-29T03:48:08;91455.38;;;15.11;61.19
46778;BME280;32536;47.128;8.746;2023-04-29T03:50:35;91463.47;;;15.11;61.39
46778;BME280;32536;47.128;8.746;2023-04-29T03:53:02;91458.84;;;15.11;61.16
46778;BME280;32536;47.128;8.746;2023-04-29T03:55:29;91461.56;;;15.11;60.75
46778;BME280;32536;47.128;8.746;2023-04-29T03:57:55;91453.75;;;15.13;60.94
46778;BME280;32536;47.128;8.746;2023-04-29T04:00:22;91446.72;;;15.16;60.75
46778;BME280;32536;47.128;8.746;2023-04-29T04:02:51;91449.13;;;15.14;60.93
46778;BME280;32536;47.128;8.746;2023-04-29T04:05:18;91453.75;;;15.13;60.75
46778;BME280;32536;47.128;8.746;2023-04-29T04:07:46;91463.03;;;15.12;60.93
46778;BME280;32536;47.128;8.746;2023-04-29T04:10:12;91453.00;;;15.13;60.80
46778;BME280;32536;47.128;8.746;2023-04-29T04:12:39;91461.84;;;15.13;61.04
46778;BME280;32536;47.128;8.746;2023-04-29T04:15:06;91454.06;;;15.15;60.85
46778;BME280;32536;47.128;8.746;2023-04-29T04:17:33;91461.00;;;15.16;61.10
46778;BME280;32536;47.128;8.746;2023-04-29T04:20:00;91455.47;;;15.20;61.00
46778;BME280;32536;47.128;8.746;2023-04-29T04:22:26;91454.28;;;15.21;60.95
46778;BME280;32536;47.128;8.746;2023-04-29T04:24:54;91453.84;;;15.23;61.29
46778;BME280;32536;47.128;8.746;2023-04-29T04:27:21;91463.44;;;15.24;61.17
46778;BME280;32536;47.128;8.746;2023-04-29T04:29:52;91461.94;;;15.23;61.19
46778;BME280;32536;47.128;8.746;2023-04-29T04:32:20;91474.53;;;15.26;61.07
46778;BME280;32536;47.128;8.746;2023-04-29T04:34:49;91478.34;;;15.28;61.26
46778;BME280;32536;47.128;8.746;2023-04-29T04:37:15;91481.03;;;15.28;60.93
46778;BME280;32536;47.128;8.746;2023-04-29T04:39:42;91487.72;;;15.24;61.01
46778;BME280;32536;47.128;8.746;2023-04-29T04:42:09;91492.28;;;15.14;61.19
46778;BME280;32536;47.128;8.746;2023-04-29T04:44:35;91490.91;;;15.09;61.41
46778;BME280;32536;47.128;8.746;2023-04-29T04:47:02;91499.56;;;15.04;61.36
46778;BME280;32536;47.128;8.746;2023-04-29T04:49:30;91480.91;;;14.97;61.22
46778;BME280;32536;47.128;8.746;2023-04-29T04:51:57;91505.28;;;14.93;61.90
46778;BME280;32536;47.128;8.746;2023-04-29T04:54:24;91509.63;;;14.91;61.75
46778;BME280;32536;47.128;8.746;2023-04-29T04:56:51;91514.56;;;14.92;62.14
46778;BME280;32536;47.128;8.746;2023-04-29T04:59:17;91515.53;;;14.98;61.98
46778;BME280;32536;47.128;8.746;2023-04-29T05:01:44;91518.97;;;14.99;61.81
46778;BME280;32536;47.128;8.746;2023-04-29T05:04:11;91518.78;;;14.93;61.64
46778;BME280;32536;47.128;8.746;2023-04-29T05:06:37;91530.13;;;14.88;61.84
46778;BME280;32536;47.128;8.746;2023-04-29T05:09:04;91532.03;;;14.87;62.04
46778;BME280;32536;47.128;8.746;2023-04-29T05:11:31;91523.97;;;14.87;61.89
46778;BME280;32536;47.128;8.746;2023-04-29T05:13:58;91520.06;;;14.88;62.06
46778;BME280;32536;47.128;8.746;2023-04-29T05:16:24;91515.41;;;14.89;62.06
46778;BME280;32536;47.128;8.746;2023-04-29T05:18:51;91523.50;;;14.89;62.00
46778;BME280;32536;47.128;8.746;2023-04-29T05:21:18;91514.91;;;14.94;62.36
46778;BME280;32536;47.128;8.746;2023-04-29T05:23:44;91524.69;;;15.01;62.28
46778;BME280;32536;47.128;8.746;2023-04-29T05:26:11;91535.25;;;15.08;62.17
46778;BME280;32536;47.128;8.746;2023-04-29T05:28:38;91535.47;;;15.14;62.11
46778;BME280;32536;47.128;8.746;2023-04-29T05:31:04;91532.94;;;15.19;61.87
46778;BME280;32536;47.128;8.746;2023-04-29T05:33:31;91530.13;;;15.23;61.67
46778;BME280;32536;47.128;8.746;2023-04-29T05:35:58;91529.59;;;15.28;61.40
46778;BME280;32536;47.128;8.746;2023-04-29T05:38:24;91541.88;;;15.29;61.26
46778;BME280;32536;47.128;8.746;2023-04-29T05:40:55;91538.31;;;15.32;61.51
46778;BME280;32536;47.128;8.746;2023-04-29T05:43:22;91545.13;;;15.37;61.37
46778;BME280;32536;47.128;8.746;2023-04-29T05:45:48;91543.03;;;15.41;61.32
46778;BME280;32536;47.128;8.746;2023-04-29T05:48:15;91542.19;;;15.44;61.01
46778;BME280;32536;47.128;8.746;2023-04-29T05:50:42;91532.91;;;15.45;61.40
46778;BME280;32536;47.128;8.746;2023-04-29T05:53:10;91529.75;;;15.47;61.56
46778;BME280;32536;47.128;8.746;2023-04-29T05:55:38;91538.16;;;15.49;61.67
46778;BME280;32536;47.128;8.746;2023-04-29T05:58:05;91530.06;;;15.49;61.34
46778;BME280;32536;47.128;8.746;2023-04-29T06:00:32;91532.34;;;15.50;61.22
46778;BME280;32536;47.128;8.746;2023-04-29T06:02:58;91525.75;;;15.51;61.19
46778;BME280;32536;47.128;8.746;2023-04-29T06:05:25;91530.69;;;15.53;61.47
46778;BME280;32536;47.128;8.746;2023-04-29T06:07:52;91542.69;;;15.52;61.39
46778;BME280;32536;47.128;8.746;2023-04-29T06:10:18;91539.25;;;15.51;61.38
46778;BME280;32536;47.128;8.746;2023-04-29T06:12:45;91546.13;;;15.52;61.46
46778;BME280;32536;47.128;8.746;2023-04-29T06:15:13;91551.13;;;15.54;61.47
46778;BME280;32536;47.128;8.746;2023-04-29T06:17:40;91551.13;;;15.54;60.95
46778;BME280;32536;47.128;8.746;2023-04-29T06:20:08;91549.59;;;15.53;61.36
46778;BME280;32536;47.128;8.746;2023-04-29T06:22:35;91551.13;;;15.54;61.59
46778;BME280;32536;47.128;8.746;2023-04-29T06:25:02;91550.66;;;15.56;61.53
46778;BME280;32536;47.128;8.746;2023-04-29T06:27:29;91549.03;;;15.58;61.76
46778;BME280;32536;47.128;8.746;2023-04-29T06:29:56;91551.63;;;15.62;61.73
46778;BME280;32536;47.128;8.746;2023-04-29T06:32:23;91555.72;;;15.66;61.88
46778;BME280;32536;47.128;8.746;2023-04-29T06:34:50;91554.81;;;15.69;61.62
46778;BME280;32536;47.128;8.746;2023-04-29T06:37:16;91549.75;;;15.72;61.42
46778;BME280;32536;47.128;8.746;2023-04-29T06:39:43;91549.63;;;15.75;61.48
46778;BME280;32536;47.128;8.746;2023-04-29T06:42:10;91543.47;;;15.75;61.45
46778;BME280;32536;47.128;8.746;2023-04-29T06:44:37;91549.63;;;15.75;61.64
46778;BME280;32536;47.128;8.746;2023-04-29T06:47:03;91548.63;;;15.82;61.69
46778;BME280;32536;47.128;8.746;2023-04-29T06:49:30;91542.25;;;15.89;61.57
46778;BME280;32536;47.128;8.746;2023-04-29T06:51:57;91548.91;;;15.97;61.48
46778;BME280;32536;47.128;8.746;2023-04-29T06:54:24;91545.19;;;16.04;61.50
46778;BME280;32536;47.128;8.746;2023-04-29T06:56:52;91551.09;;;16.11;61.39
46778;BME280;32536;47.128;8.746;2023-04-29T06:59:19;91550.53;;;16.16;61.34
46778;BME280;32536;47.128;8.746;2023-04-29T07:01:45;91548.31;;;16.24;61.42
46778;BME280;32536;47.128;8.746;2023-04-29T07:04:12;91545.03;;;16.29;61.10
46778;BME280;32536;47.128;8.746;2023-04-29T07:06:39;91545.97;;;16.36;61.13
46778;BME280;32536;47.128;8.746;2023-04-29T07:09:05;91552.31;;;16.42;61.13
46778;BME280;32536;47.128;8.746;2023-04-29T07:11:32;91550.22;;;16.46;61.22
46778;BME280;32536;47.128;8.746;2023-04-29T07:13:59;91548.59;;;16.48;61.37
46778;BME280;32536;47.128;8.746;2023-04-29T07:16:26;91548.59;;;16.48;61.40
46778;BME280;32536;47.128;8.746;2023-04-29T07:18:52;91551.59;;;16.51;61.57
46778;BME280;32536;47.128;8.746;2023-04-29T07:21:19;91555.50;;;16.49;61.21
46778;BME280;32536;47.128;8.746;2023-04-29T07:23:46;91560.91;;;16.49;61.23
46778;BME280;32536;47.128;8.746;2023-04-29T07:26:15;91552.78;;;16.49;61.14
46778;BME280;32536;47.128;8.746;2023-04-29T07:28:43;91558.66;;;16.48;61.11
46778;BME280;32536;47.128;8.746;2023-04-29T07:31:10;91554.75;;;16.49;61.25
46778;BME280;32536;47.128;8.746;2023-04-29T07:33:37;91554.59;;;16.53;61.25
46778;BME280;32536;47.128;8.746;2023-04-29T07:36:04;91558.38;;;16.55;61.20
46778;BME280;32536;47.128;8.746;2023-04-29T07:38:32;91561.84;;;16.56;61.23
46778;BME280;32536;47.128;8.746;2023-04-29T07:40:59;91557.50;;;16.58;60.81
46778;BME280;32536;47.128;8.746;2023-04-29T07:43:26;91558.06;;;16.53;60.44
46778;BME280;32536;47.128;8.746;2023-04-29T07:45:52;91561.22;;;16.52;60.51
46778;BME280;32536;47.128;8.746;2023-04-29T07:48:19;91561.22;;;16.52;60.67
46778;BME280;32536;47.128;8.746;2023-04-29T07:50:46;91559.25;;;16.52;60.58
46778;BME280;32536;47.128;8.746;2023-04-29T07:53:13;91553.41;;;16.54;60.88
46778;BME280;32536;47.128;8.746;2023-04-29T07:55:40;91559.88;;;16.56;60.88
46778;BME280;32536;47.128;8.746;2023-04-29T07:58:07;91557.50;;;16.58;60.73
46778;BME280;32536;47.128;8.746;2023-04-29T08:00:34;91566.97;;;16.63;60.80
46778;BME280;32536;47.128;8.746;2023-04-29T08:03:00;91557.09;;;16.69;61.29
46778;BME280;32536;47.128;8.746;2023-04-29T08:05:27;91556.03;;;16.76;61.15
46778;BME280;32536;47.128;8.746;2023-04-29T08:07:55;91566.16;;;16.85;61.04
46778;BME280;32536;47.128;8.746;2023-04-29T08:10:21;91564.69;;;16.93;61.07
46778;BME280;32536;47.128;8.746;2023-04-29T08:12:48;91564.69;;;16.93;61.36
46778;BME280;32536;47.128;8.746;2023-04-29T08:15:15;91569.22;;;16.96;61.20
46778;BME280;32536;47.128;8.746;2023-04-29T08:17:43;91565.78;;;17.05;61.27
46778;BME280;32536;47.128;8.746;2023-04-29T08:20:10;91561.94;;;17.15;61.21
46778;BME280;32536;47.128;8.746;2023-04-29T08:22:37;91566.91;;;17.26;61.48
46778;BME280;32536;47.128;8.746;2023-04-29T08:25:04;91561.97;;;17.34;61.30
46778;BME280;32536;47.128;8.746;2023-04-29T08:27:31;91557.00;;;17.32;60.96
46778;BME280;32536;47.128;8.746;2023-04-29T08:29:58;91564.81;;;17.30;61.51
46778;BME280;32536;47.128;8.746;2023-04-29T08:32:25;91564.34;;;17.32;61.34
46778;BME280;32536;47.128;8.746;2023-04-29T08:34:51;91560.91;;;17.40;61.42
46778;BME280;32536;47.128;8.746;2023-04-29T08:37:18;91563.91;;;17.42;62.27
46778;BME280;32536;47.128;8.746;2023-04-29T08:39:45;91567.69;;;17.64;62.84
46778;BME280;32536;47.128;8.746;2023-04-29T08:42:12;91562.94;;;17.96;62.71
46778;BME280;32536;47.128;8.746;2023-04-29T08:44:39;91555.97;;;18.22;60.78
46778;BME280;32536;47.128;8.746;2023-04-29T08:47:07;91559.25;;;18.36;58.82
46778;BME280;32536;47.128;8.746;2023-04-29T08:49:34;91561.94;;;18.45;58.31
46778;BME280;32536;47.128;8.746;2023-04-29T08:52:03;91559.84;;;18.40;56.73
46778;BME280;32536;47.128;8.746;2023-04-29T08:54:30;91561.66;;;18.34;56.50
46778;BME280;32536;47.128;8.746;2023-04-29T08:56:58;91555.19;;;18.31;57.11
46778;BME280;32536;47.128;8.746;2023-04-29T08:59:26;91561.25;;;18.26;56.60
46778;BME280;32536;47.128;8.746;2023-04-29T09:01:53;91555.03;;;18.26;56.78
46778;BME280;32536;47.128;8.746;2023-04-29T09:07:03;91560.19;;;18.14;56.62
46778;BME280;32536;47.128;8.746;2023-04-29T09:09:31;91574.94;;;18.13;56.85
46778;BME280;32536;47.128;8.746;2023-04-29T09:11:58;91575.69;;;18.14;57.60
46778;BME280;32536;47.128;8.746;2023-04-29T09:14:25;91559.00;;;18.15;57.54
46778;BME280;32536;47.128;8.746;2023-04-29T09:16:53;91561.97;;;18.17;57.44
46778;BME280;32536;47.128;8.746;2023-04-29T09:19:33;91560.34;;;18.11;54.43
46778;BME280;32536;47.128;8.746;2023-04-29T09:22:02;91559.88;;;18.12;57.39
46778;BME280;32536;47.128;8.746;2023-04-29T09:24:30;91561.41;;;18.13;57.85
46778;BME280;32536;47.128;8.746;2023-04-29T09:26:58;91561.25;;;18.17;58.19
46778;BME280;32536;47.128;8.746;2023-04-29T09:29:26;91570.13;;;18.17;57.63
46778;BME280;32536;47.128;8.746;2023-04-29T09:31:53;91565.00;;;18.19;57.46
46778;BME280;32536;47.128;8.746;2023-04-29T09:34:31;91560.78;;;18.18;52.17
46778;BME280;32536;47.128;8.746;2023-04-29T09:37:00;91565.75;;;18.20;57.77
46778;BME280;32536;47.128;8.746;2023-04-29T09:39:37;91574.78;;;18.26;57.39
46778;BME280;32536;47.128;8.746;2023-04-29T09:42:04;91574.19;;;18.31;58.02
46778;BME280;32536;47.128;8.746;2023-04-29T09:44:33;91574.31;;;18.37;58.26
46778;BME280;32536;47.128;8.746;2023-04-29T09:47:05;91574.16;;;18.40;57.97
46778;BME280;32536;47.128;8.746;2023-04-29T09:49:41;91571.00;;;18.42;57.53
46778;BME280;32536;47.128;8.746;2023-04-29T09:52:10;91574.75;;;18.45;58.37
46778;BME280;32536;47.128;8.746;2023-04-29T09:54:40;91572.31;;;18.47;58.34
46778;BME280;32536;47.128;8.746;2023-04-29T09:57:09;91566.47;;;18.48;58.40
46778;BME280;32536;47.128;8.746;2023-04-29T09:59:39;91568.41;;;18.48;58.27
46778;BME280;32536;47.128;8.746;2023-04-29T10:02:16;91571.13;;;18.48;57.48
46778;BME280;32536;47.128;8.746;2023-04-29T10:04:45;91577.16;;;18.52;58.29
46778;BME280;32536;47.128;8.746;2023-04-29T10:07:14;91568.38;;;18.57;58.39
46778;BME280;32536;47.128;8.746;2023-04-29T10:09:43;91572.88;;;18.60;58.50
46778;BME280;32536;47.128;8.746;2023-04-29T10:12:15;91575.31;;;18.58;58.38
46778;BME280;32536;47.128;8.746;2023-04-29T10:14:47;91568.22;;;18.61;58.27
46778;BME280;32536;47.128;8.746;2023-04-29T10:17:25;91568.38;;;18.66;58.49
46778;BME280;32536;47.128;8.746;2023-04-29T10:20:05;91559.00;;;18.67;57.62
46778;BME280;32536;47.128;8.746;2023-04-29T10:22:33;91559.59;;;18.71;58.25
46778;BME280;32536;47.128;8.746;2023-04-29T10:25:09;91561.13;;;18.72;58.21
46778;BME280;32536;47.128;8.746;2023-04-29T10:27:37;91556.28;;;18.67;57.50
46778;BME280;32536;47.128;8.746;2023-04-29T10:30:11;91566.69;;;18.69;58.08
46778;BME280;32536;47.128;8.746;2023-04-29T10:32:42;91553.72;;;18.73;58.34
46778;BME280;32536;47.128;8.746;2023-04-29T10:35:11;91558.25;;;18.76;58.55
46778;BME280;32536;47.128;8.746;2023-04-29T10:37:43;91551.59;;;18.77;58.24
46778;BME280;32536;47.128;8.746;2023-04-29T10:45:25;91531.13;;;18.67;57.58
46778;BME280;32536;47.128;8.746;2023-04-29T10:53:04;91532.88;;;18.79;58.51
46778;BME280;32536;47.128;8.746;2023-04-29T10:55:35;91528.22;;;18.80;58.24
46778;BME280;32536;47.128;8.746;2023-04-29T10:58:03;91527.03;;;18.71;57.81
46778;BME280;32536;47.128;8.746;2023-04-29T11:00:32;91520.44;;;18.63;58.19
46778;BME280;32536;47.128;8.746;2023-04-29T11:03:04;91514.28;;;18.63;58.28
46778;BME280;32536;47.128;8.746;2023-04-29T11:05:33;91519.97;;;18.65;58.34
46778;BME280;32536;47.128;8.746;2023-04-29T11:08:22;91526.75;;;18.69;57.09
46778;BME280;32536;47.128;8.746;2023-04-29T11:10:52;91527.94;;;18.78;58.08
46778;BME280;32536;47.128;8.746;2023-04-29T11:13:28;91515.22;;;18.84;57.46
46778;BME280;32536;47.128;8.746;2023-04-29T11:16:10;91516.09;;;18.90;55.36
46778;BME280;32536;47.128;8.746;2023-04-29T11:19:02;91516.84;;;18.91;53.61
46778;BME280;32536;47.128;8.746;2023-04-29T11:21:37;91511.09;;;18.98;57.31
46778;BME280;32536;47.128;8.746;2023-04-29T11:24:05;91510.03;;;19.04;57.33
46778;BME280;32536;47.128;8.746;2023-04-29T11:26:35;91501.25;;;19.10;56.60
46778;BME280;32536;47.128;8.746;2023-04-29T11:29:07;91507.72;;;19.12;56.87
46778;BME280;32536;47.128;8.746;2023-04-29T11:31:35;91499.28;;;19.10;57.32
46778;BME280;32536;47.128;8.746;2023-04-29T11:34:34;91502.63;;;19.05;55.67
46778;BME280;32536;47.128;8.746;2023-04-29T11:37:04;91500.34;;;19.13;56.81
46778;BME280;32536;47.128;8.746;2023-04-29T11:39:34;91498.75;;;19.21;57.31
46778;BME280;32536;47.128;8.746;2023-04-29T11:42:07;91507.03;;;19.27;57.10
46778;BME280;32536;47.128;8.746;2023-04-29T11:44:34;91506.84;;;19.30;57.27
46778;BME280;32536;47.128;8.746;2023-04-29T11:47:05;91516.22;;;19.29;57.17
46778;BME280;32536;47.128;8.746;2023-04-29T11:49:33;91503.41;;;19.30;57.31
46778;BME280;32536;47.128;8.746;2023-04-29T11:52:02;91509.28;;;19.28;57.54
46778;BME280;32536;47.128;8.746;2023-04-29T11:54:29;91509.41;;;19.34;57.64
46778;BME280;32536;47.128;8.746;2023-04-29T11:56:57;91508.75;;;19.39;57.35
46778;BME280;32536;47.128;8.746;2023-04-29T11:59:25;91508.47;;;19.37;57.24
46778;BME280;32536;47.128;8.746;2023-04-29T12:01:52;91503.97;;;19.34;57.51
46778;BME280;32536;47.128;8.746;2023-04-29T12:04:18;91500.03;;;19.35;57.52
46778;BME280;32536;47.128;8.746;2023-04-29T12:06:45;91508.28;;;19.41;57.42
46778;BME280;32536;47.128;8.746;2023-04-29T12:09:12;91499.41;;;19.40;57.14
46778;BME280;32536;47.128;8.746;2023-04-29T12:11:40;91501.53;;;19.36;57.16
46778;BME280;32536;47.128;8.746;2023-04-29T12:14:07;91505.00;;;19.36;57.17
46778;BME280;32536;47.128;8.746;2023-04-29T12:16:34;91495.81;;;19.34;57.23
46778;BME280;32536;47.128;8.746;2023-04-29T12:19:01;91493.41;;;19.36;57.37
46778;BME280;32536;47.128;8.746;2023-04-29T12:21:28;91483.84;;;19.41;57.17
46778;BME280;32536;47.128;8.746;2023-04-29T12:23:58;91496.69;;;19.40;56.90
46778;BME280;32536;47.128;8.746;2023-04-29T12:26:27;91494.31;;;19.33;56.16
46778;BME280;32536;47.128;8.746;2023-04-29T12:28:57;91495.69;;;19.28;56.60
46778;BME280;32536;47.128;8.746;2023-04-29T12:31:31;91492.41;;;19.24;55.97
46778;BME280;32536;47.128;8.746;2023-04-29T12:34:04;91500.91;;;19.17;56.06
46778;BME280;32536;47.128;8.746;2023-04-29T12:37:05;91494.13;;;19.12;56.48
46778;BME280;32536;47.128;8.746;2023-04-29T12:39:31;91498.06;;;19.11;55.98
46778;BME280;32536;47.128;8.746;2023-04-29T12:42:00;91496.56;;;19.10;56.57
46778;BME280;32536;47.128;8.746;2023-04-29T12:44:36;91505.75;;;19.13;56.18
46778;BME280;32536;47.128;8.746;2023-04-29T12:47:10;91498.47;;;19.19;55.96
46778;BME280;32536;47.128;8.746;2023-04-29T12:49:42;91505.81;;;19.28;56.02
46778;BME280;32536;47.128;8.746;2023-04-29T12:52:12;91500.38;;;19.28;56.13
46778;BME280;32536;47.128;8.746;2023-04-29T12:54:39;91503.75;;;19.23;56.36
46778;BME280;32536;47.128;8.746;2023-04-29T12:57:11;91507.94;;;19.24;56.43
46778;BME280;32536;47.128;8.746;2023-04-29T12:59:38;91514.31;;;19.20;56.26
46778;BME280;32536;47.128;8.746;2023-04-29T13:02:06;91511.88;;;19.23;56.47
46778;BME280;32536;47.128;8.746;2023-04-29T13:04:33;91504.31;;;19.27;56.40
46778;BME280;32536;47.128;8.746;2023-04-29T13:06:59;91507.59;;;19.31;56.54
46778;BME280;32536;47.128;8.746;2023-04-29T13:09:27;91514.84;;;19.34;56.27
46778;BME280;32536;47.128;8.746;2023-04-29T13:11:55;91518.75;;;19.33;56.20
46778;BME280;32536;47.128;8.746;2023-04-29T13:14:22;91514.09;;;19.33;56.23
46778;BME280;32536;47.128;8.746;2023-04-29T13:16:49;91517.53;;;19.34;56.30
46778;BME280;32536;47.128;8.746;2023-04-29T13:19:15;91522.97;;;19.34;56.40
46778;BME280;32536;47.128;8.746;2023-04-29T13:21:42;91519.06;;;19.35;56.47
46778;BME280;32536;47.128;8.746;2023-04-29T13:24:11;91515.41;;;19.38;56.37